sensor_id;sensor_type;location;lat;lon;timestamp;P1;durP1;ratioP1;P2;durP2;ratioP2
9860;SDS011;4969;52.304;4.968;2023-10-31T00:00:27;8.53;;;5.00;;
9860;SDS011;4969;52.304;4.968;2023-10-31T00:02:54;7.33;;;5.27;;
9860;SDS011;4969;52.304;4.968;2023-10-31T00:05:22;7.57;;;5.27;;
9860;SDS011;4969;52.304;4.968;2023-10-31T00:07:48;7.97;;;5.90;;
9860;SDS011;4969;52.304;4.968;2023-10-31T00:10:15;6.37;;;5.03;;
9860;SDS011;4969;52.304;4.968;2023-10-31T00:12:42;9.07;;;5.37;;
9860;SDS011;4969;52.304;4.968;2023-10-31T00:15:08;6.87;;;5.50;;
9860;SDS011;4969;52.304;4.968;2023-10-31T00:17:35;5.87;;;5.13;;
9860;SDS011;4969;52.304;4.968;2023-10-31T00:20:01;6.33;;;5.60;;
9860;SDS011;4969;52.304;4.968;2023-10-31T00:22:29;6.93;;;4.87;;
9860;SDS011;4969;52.304;4.968;2023-10-31T00:24:56;5.60;;;5.10;;
9860;SDS011;4969;52.304;4.968;2023-10-31T00:27:22;7.80;;;6.33;;
9860;SDS011;4969;52.304;4.968;2023-10-31T00:29:49;9.23;;;6.80;;
9860;SDS011;4969;52.304;4.968;2023-10-31T00:32:15;8.37;;;6.80;;
9860;SDS011;4969;52.304;4.968;2023-10-31T00:34:42;6.83;;;5.60;;
9860;SDS011;4969;52.304;4.968;2023-10-31T00:37:08;7.03;;;5.57;;
9860;SDS011;4969;52.304;4.968;2023-10-31T00:39:36;9.60;;;7.33;;
9860;SDS011;4969;52.304;4.968;2023-10-31T00:42:03;8.98;;;5.65;;
9860;SDS011;4969;52.304;4.968;2023-10-31T00:44:30;7.80;;;6.00;;
9860;SDS011;4969;52.304;4.968;2023-10-31T00:46:56;11.20;;;6.30;;
9860;SDS011;4969;52.304;4.968;2023-10-31T00:49:23;11.27;;;7.63;;
9860;SDS011;4969;52.304;4.968;2023-10-31T00:51:49;10.18;;;6.53;;
9860;SDS011;4969;52.304;4.968;2023-10-31T00:54:16;6.50;;;4.68;;
9860;SDS011;4969;52.304;4.968;2023-10-31T00:56:43;8.43;;;6.35;;
9860;SDS011;4969;52.304;4.968;2023-10-31T00:59:10;6.68;;;4.95;;
9860;SDS011;4969;52.304;4.968;2023-10-31T01:01:37;4.78;;;4.28;;
9860;SDS011;4969;52.304;4.968;2023-10-31T01:04:03;4.82;;;4.28;;
9860;SDS011;4969;52.304;4.968;2023-10-31T01:06:30;5.22;;;4.40;;
9860;SDS011;4969;52.304;4.968;2023-10-31T01:08:57;6.25;;;4.63;;
9860;SDS011;4969;52.304;4.968;2023-10-31T01:11:23;6.03;;;4.50;;
9860;SDS011;4969;52.304;4.968;2023-10-31T01:13:51;4.82;;;3.95;;
9860;SDS011;4969;52.304;4.968;2023-10-31T01:16:18;7.80;;;3.70;;
9860;SDS011;4969;52.304;4.968;2023-10-31T01:18:44;4.43;;;3.28;;
9860;SDS011;4969;52.304;4.968;2023-10-31T01:21:11;4.10;;;2.67;;
9860;SDS011;4969;52.304;4.968;2023-10-31T01:23:37;3.92;;;2.63;;
9860;SDS011;4969;52.304;4.968;2023-10-31T01:26:04;2.40;;;2.10;;
9860;SDS011;4969;52.304;4.968;2023-10-31T01:28:30;3.15;;;2.30;;
9860;SDS011;4969;52.304;4.968;2023-10-31T01:30:58;3.50;;;2.13;;
9860;SDS011;4969;52.304;4.968;2023-10-31T01:33:25;2.72;;;1.90;;
9860;SDS011;4969;52.304;4.968;2023-10-31T01:35:51;1.90;;;1.73;;
9860;SDS011;4969;52.304;4.968;2023-10-31T01:38:18;3.33;;;1.85;;
9860;SDS011;4969;52.304;4.968;2023-10-31T01:40:48;3.80;;;2.05;;
9860;SDS011;4969;52.304;4.968;2023-10-31T01:43:28;2.70;;;2.20;;
9860;SDS011;4969;52.304;4.968;2023-10-31T01:45:55;3.00;;;2.28;;
9860;SDS011;4969;52.304;4.968;2023-10-31T01:48:23;2.70;;;2.50;;
9860;SDS011;4969;52.304;4.968;2023-10-31T01:50:50;4.65;;;2.30;;
9860;SDS011;4969;52.304;4.968;2023-10-31T01:53:17;2.47;;;2.20;;
9860;SDS011;4969;52.304;4.968;2023-10-31T01:55:45;2.42;;;2.22;;
9860;SDS011;4969;52.304;4.968;2023-10-31T01:58:11;3.17;;;2.45;;
9860;SDS011;4969;52.304;4.968;2023-10-31T02:00:39;2.92;;;2.42;;
9860;SDS011;4969;52.304;4.968;2023-10-31T02:03:07;2.78;;;2.25;;
9860;SDS011;4969;52.304;4.968;2023-10-31T02:05:35;3.47;;;2.50;;
9860;SDS011;4969;52.304;4.968;2023-10-31T02:08:02;2.65;;;2.33;;
9860;SDS011;4969;52.304;4.968;2023-10-31T02:10:29;3.25;;;2.58;;
9860;SDS011;4969;52.304;4.968;2023-10-31T02:12:55;3.53;;;3.03;;
9860;SDS011;4969;52.304;4.968;2023-10-31T02:15:22;3.70;;;3.40;;
9860;SDS011;4969;52.304;4.968;2023-10-31T02:17:48;4.43;;;4.03;;
9860;SDS011;4969;52.304;4.968;2023-10-31T02:20:15;4.80;;;3.53;;
9860;SDS011;4969;52.304;4.968;2023-10-31T02:22:43;4.45;;;4.05;;
9860;SDS011;4969;52.304;4.968;2023-10-31T02:25:16;5.63;;;4.20;;
9860;SDS011;4969;52.304;4.968;2023-10-31T02:27:43;6.00;;;4.28;;
9860;SDS011;4969;52.304;4.968;2023-10-31T02:30:10;3.72;;;3.42;;
9860;SDS011;4969;52.304;4.968;2023-10-31T02:32:37;4.25;;;3.60;;
9860;SDS011;4969;52.304;4.968;2023-10-31T02:35:04;4.15;;;3.20;;
9860;SDS011;4969;52.304;4.968;2023-10-31T02:37:31;2.47;;;2.13;;
9860;SDS011;4969;52.304;4.968;2023-10-31T02:39:59;7.20;;;2.23;;
9860;SDS011;4969;52.304;4.968;2023-10-31T02:42:26;2.70;;;2.00;;
9860;SDS011;4969;52.304;4.968;2023-10-31T02:44:53;2.45;;;1.48;;
9860;SDS011;4969;52.304;4.968;2023-10-31T02:47:20;2.07;;;1.10;;
9860;SDS011;4969;52.304;4.968;2023-10-31T02:49:46;1.70;;;0.90;;
9860;SDS011;4969;52.304;4.968;2023-10-31T02:52:13;1.40;;;0.80;;
9860;SDS011;4969;52.304;4.968;2023-10-31T02:54:39;1.53;;;1.00;;
9860;SDS011;4969;52.304;4.968;2023-10-31T02:57:07;1.87;;;0.80;;
9860;SDS011;4969;52.304;4.968;2023-10-31T02:59:34;2.73;;;0.87;;
9860;SDS011;4969;52.304;4.968;2023-10-31T03:02:01;1.50;;;0.95;;
9860;SDS011;4969;52.304;4.968;2023-10-31T03:04:27;1.43;;;0.63;;
9860;SDS011;4969;52.304;4.968;2023-10-31T03:06:54;0.90;;;0.57;;
9860;SDS011;4969;52.304;4.968;2023-10-31T03:09:20;1.33;;;0.70;;
9860;SDS011;4969;52.304;4.968;2023-10-31T03:11:47;0.80;;;0.60;;
9860;SDS011;4969;52.304;4.968;2023-10-31T03:14:15;4.40;;;0.70;;
9860;SDS011;4969;52.304;4.968;2023-10-31T03:16:41;0.97;;;0.70;;
9860;SDS011;4969;52.304;4.968;2023-10-31T03:19:08;2.13;;;0.80;;
9860;SDS011;4969;52.304;4.968;2023-10-31T03:21:34;1.20;;;0.93;;
9860;SDS011;4969;52.304;4.968;2023-10-31T03:24:01;1.30;;;0.80;;
9860;SDS011;4969;52.304;4.968;2023-10-31T03:26:27;1.08;;;0.63;;
9860;SDS011;4969;52.304;4.968;2023-10-31T03:28:54;0.98;;;0.73;;
9860;SDS011;4969;52.304;4.968;2023-10-31T03:31:23;2.00;;;0.90;;
9860;SDS011;4969;52.304;4.968;2023-10-31T03:33:50;0.90;;;0.60;;
9860;SDS011;4969;52.304;4.968;2023-10-31T03:36:18;0.77;;;0.50;;
9860;SDS011;4969;52.304;4.968;2023-10-31T03:38:45;1.23;;;0.67;;
9860;SDS011;4969;52.304;4.968;2023-10-31T03:41:11;1.23;;;0.70;;
9860;SDS011;4969;52.304;4.968;2023-10-31T03:43:38;1.02;;;0.70;;
9860;SDS011;4969;52.304;4.968;2023-10-31T03:46:05;0.60;;;0.50;;
9860;SDS011;4969;52.304;4.968;2023-10-31T03:48:33;0.85;;;0.60;;
9860;SDS011;4969;52.304;4.968;2023-10-31T03:50:59;1.60;;;0.70;;
9860;SDS011;4969;52.304;4.968;2023-10-31T03:53:26;1.23;;;0.83;;
9860;SDS011;4969;52.304;4.968;2023-10-31T03:55:53;1.98;;;0.80;;
9860;SDS011;4969;52.304;4.968;2023-10-31T03:58:19;1.20;;;0.60;;
9860;SDS011;4969;52.304;4.968;2023-10-31T04:00:47;0.90;;;0.50;;
9860;SDS011;4969;52.304;4.968;2023-10-31T04:03:13;2.65;;;0.70;;
9860;SDS011;4969;52.304;4.968;2023-10-31T04:05:41;1.05;;;0.60;;
9860;SDS011;4969;52.304;4.968;2023-10-31T04:08:08;1.55;;;0.47;;
9860;SDS011;4969;52.304;4.968;2023-10-31T04:10:34;1.70;;;0.60;;
9860;SDS011;4969;52.304;4.968;2023-10-31T04:13:01;1.70;;;0.80;;
9860;SDS011;4969;52.304;4.968;2023-10-31T04:15:27;3.80;;;1.15;;
9860;SDS011;4969;52.304;4.968;2023-10-31T04:17:54;2.33;;;1.02;;
9860;SDS011;4969;52.304;4.968;2023-10-31T04:20:20;1.90;;;0.80;;
9860;SDS011;4969;52.304;4.968;2023-10-31T04:22:48;1.38;;;0.85;;
9860;SDS011;4969;52.304;4.968;2023-10-31T04:25:15;1.65;;;0.70;;
9860;SDS011;4969;52.304;4.968;2023-10-31T04:27:41;3.17;;;0.80;;
9860;SDS011;4969;52.304;4.968;2023-10-31T04:30:08;1.73;;;0.80;;
9860;SDS011;4969;52.304;4.968;2023-10-31T04:32:36;1.17;;;0.50;;
9860;SDS011;4969;52.304;4.968;2023-10-31T04:35:03;2.50;;;0.65;;
9860;SDS011;4969;52.304;4.968;2023-10-31T04:37:30;3.75;;;1.15;;
9860;SDS011;4969;52.304;4.968;2023-10-31T04:39:58;2.67;;;0.80;;
9860;SDS011;4969;52.304;4.968;2023-10-31T04:42:25;3.22;;;0.77;;
9860;SDS011;4969;52.304;4.968;2023-10-31T04:44:51;3.65;;;0.95;;
9860;SDS011;4969;52.304;4.968;2023-10-31T04:47:18;3.83;;;1.20;;
9860;SDS011;4969;52.304;4.968;2023-10-31T04:49:44;2.35;;;0.70;;
9860;SDS011;4969;52.304;4.968;2023-10-31T04:52:11;1.45;;;0.77;;
9860;SDS011;4969;52.304;4.968;2023-10-31T04:54:38;2.17;;;0.75;;
9860;SDS011;4969;52.304;4.968;2023-10-31T04:57:07;3.33;;;0.75;;
9860;SDS011;4969;52.304;4.968;2023-10-31T04:59:33;3.33;;;0.68;;
9860;SDS011;4969;52.304;4.968;2023-10-31T05:02:00;2.30;;;0.70;;
9860;SDS011;4969;52.304;4.968;2023-10-31T05:04:26;1.20;;;0.65;;
9860;SDS011;4969;52.304;4.968;2023-10-31T05:06:54;1.58;;;0.70;;
9860;SDS011;4969;52.304;4.968;2023-10-31T05:09:21;2.40;;;0.75;;
9860;SDS011;4969;52.304;4.968;2023-10-31T05:11:48;1.23;;;0.73;;
9860;SDS011;4969;52.304;4.968;2023-10-31T05:14:16;1.67;;;0.70;;
9860;SDS011;4969;52.304;4.968;2023-10-31T05:16:43;1.77;;;0.75;;
9860;SDS011;4969;52.304;4.968;2023-10-31T05:19:09;1.92;;;0.60;;
9860;SDS011;4969;52.304;4.968;2023-10-31T05:21:36;1.20;;;0.63;;
9860;SDS011;4969;52.304;4.968;2023-10-31T05:24:03;2.47;;;0.57;;
9860;SDS011;4969;52.304;4.968;2023-10-31T05:26:30;1.88;;;0.95;;
9860;SDS011;4969;52.304;4.968;2023-10-31T05:28:57;2.90;;;0.65;;
9860;SDS011;4969;52.304;4.968;2023-10-31T05:31:25;2.97;;;0.90;;
9860;SDS011;4969;52.304;4.968;2023-10-31T05:33:51;1.33;;;0.70;;
9860;SDS011;4969;52.304;4.968;2023-10-31T05:36:18;1.73;;;0.80;;
9860;SDS011;4969;52.304;4.968;2023-10-31T05:38:45;2.35;;;0.80;;
9860;SDS011;4969;52.304;4.968;2023-10-31T05:41:12;1.90;;;0.73;;
9860;SDS011;4969;52.304;4.968;2023-10-31T05:43:39;2.15;;;0.50;;
9860;SDS011;4969;52.304;4.968;2023-10-31T05:46:06;2.28;;;0.80;;
9860;SDS011;4969;52.304;4.968;2023-10-31T05:48:36;2.70;;;1.10;;
9860;SDS011;4969;52.304;4.968;2023-10-31T05:51:03;2.80;;;1.00;;
9860;SDS011;4969;52.304;4.968;2023-10-31T05:53:30;1.88;;;0.70;;
9860;SDS011;4969;52.304;4.968;2023-10-31T05:55:57;2.13;;;0.60;;
9860;SDS011;4969;52.304;4.968;2023-10-31T05:58:24;1.23;;;0.70;;
9860;SDS011;4969;52.304;4.968;2023-10-31T06:00:50;0.90;;;0.70;;
9860;SDS011;4969;52.304;4.968;2023-10-31T06:03:17;1.17;;;0.85;;
9860;SDS011;4969;52.304;4.968;2023-10-31T06:05:45;2.17;;;0.77;;
9860;SDS011;4969;52.304;4.968;2023-10-31T06:08:11;1.17;;;0.77;;
9860;SDS011;4969;52.304;4.968;2023-10-31T06:10:38;1.95;;;1.25;;
9860;SDS011;4969;52.304;4.968;2023-10-31T06:13:04;3.97;;;1.07;;
9860;SDS011;4969;52.304;4.968;2023-10-31T06:15:31;3.50;;;1.20;;
9860;SDS011;4969;52.304;4.968;2023-10-31T06:17:57;4.57;;;1.30;;
9860;SDS011;4969;52.304;4.968;2023-10-31T06:20:24;2.95;;;1.92;;
9860;SDS011;4969;52.304;4.968;2023-10-31T06:22:53;4.00;;;2.00;;
9860;SDS011;4969;52.304;4.968;2023-10-31T06:25:20;3.97;;;2.73;;
9860;SDS011;4969;52.304;4.968;2023-10-31T06:27:46;3.93;;;2.80;;
9860;SDS011;4969;52.304;4.968;2023-10-31T06:30:13;2.70;;;2.50;;
9860;SDS011;4969;52.304;4.968;2023-10-31T06:32:40;4.50;;;2.90;;
9860;SDS011;4969;52.304;4.968;2023-10-31T06:35:06;4.10;;;3.37;;
9860;SDS011;4969;52.304;4.968;2023-10-31T06:37:33;3.43;;;3.20;;
9860;SDS011;4969;52.304;4.968;2023-10-31T06:40:02;3.07;;;2.87;;
9860;SDS011;4969;52.304;4.968;2023-10-31T06:42:29;3.17;;;2.97;;
9860;SDS011;4969;52.304;4.968;2023-10-31T06:44:56;4.57;;;2.90;;
9860;SDS011;4969;52.304;4.968;2023-10-31T06:47:22;3.37;;;2.77;;
9860;SDS011;4969;52.304;4.968;2023-10-31T06:49:49;2.93;;;2.70;;
9860;SDS011;4969;52.304;4.968;2023-10-31T06:52:15;5.40;;;2.87;;
9860;SDS011;4969;52.304;4.968;2023-10-31T06:54:42;4.80;;;2.87;;
9860;SDS011;4969;52.304;4.968;2023-10-31T06:57:10;4.53;;;2.70;;
9860;SDS011;4969;52.304;4.968;2023-10-31T06:59:36;3.40;;;3.17;;
9860;SDS011;4969;52.304;4.968;2023-10-31T07:02:03;4.37;;;2.60;;
9860;SDS011;4969;52.304;4.968;2023-10-31T07:04:30;3.83;;;2.80;;
9860;SDS011;4969;52.304;4.968;2023-10-31T07:06:56;5.50;;;2.53;;
9860;SDS011;4969;52.304;4.968;2023-10-31T07:09:23;3.57;;;2.70;;
9860;SDS011;4969;52.304;4.968;2023-10-31T07:11:49;2.53;;;2.20;;
9860;SDS011;4969;52.304;4.968;2023-10-31T07:14:17;5.43;;;2.17;;
9860;SDS011;4969;52.304;4.968;2023-10-31T07:16:44;3.47;;;2.00;;
9860;SDS011;4969;52.304;4.968;2023-10-31T07:19:10;3.87;;;2.20;;
9860;SDS011;4969;52.304;4.968;2023-10-31T07:21:37;5.00;;;1.97;;
9860;SDS011;4969;52.304;4.968;2023-10-31T07:24:04;2.77;;;1.87;;
9860;SDS011;4969;52.304;4.968;2023-10-31T07:26:33;3.77;;;1.80;;
9860;SDS011;4969;52.304;4.968;2023-10-31T07:29:00;4.10;;;1.80;;
9860;SDS011;4969;52.304;4.968;2023-10-31T07:31:28;5.93;;;1.77;;
9860;SDS011;4969;52.304;4.968;2023-10-31T07:33:54;4.90;;;1.60;;
9860;SDS011;4969;52.304;4.968;2023-10-31T07:36:21;1.60;;;1.30;;
9860;SDS011;4969;52.304;4.968;2023-10-31T07:38:48;1.83;;;1.23;;
9860;SDS011;4969;52.304;4.968;2023-10-31T07:41:14;2.37;;;1.40;;
9860;SDS011;4969;52.304;4.968;2023-10-31T07:43:41;4.93;;;1.67;;
9860;SDS011;4969;52.304;4.968;2023-10-31T07:46:08;4.50;;;1.35;;
9860;SDS011;4969;52.304;4.968;2023-10-31T07:48:35;3.80;;;1.73;;
9860;SDS011;4969;52.304;4.968;2023-10-31T07:51:02;2.93;;;1.60;;
9860;SDS011;4969;52.304;4.968;2023-10-31T07:53:30;3.83;;;1.70;;
9860;SDS011;4969;52.304;4.968;2023-10-31T07:55:56;2.37;;;1.57;;
9860;SDS011;4969;52.304;4.968;2023-10-31T07:58:23;3.87;;;1.67;;
9860;SDS011;4969;52.304;4.968;2023-10-31T08:00:49;2.70;;;1.30;;
9860;SDS011;4969;52.304;4.968;2023-10-31T08:03:16;2.93;;;1.80;;
9860;SDS011;4969;52.304;4.968;2023-10-31T08:05:44;2.97;;;2.10;;
9860;SDS011;4969;52.304;4.968;2023-10-31T08:08:10;4.20;;;1.90;;
9860;SDS011;4969;52.304;4.968;2023-10-31T08:10:37;2.70;;;1.80;;
9860;SDS011;4969;52.304;4.968;2023-10-31T08:13:03;4.13;;;2.27;;
9860;SDS011;4969;52.304;4.968;2023-10-31T08:15:30;3.67;;;2.20;;
9860;SDS011;4969;52.304;4.968;2023-10-31T08:17:56;3.17;;;2.00;;
9860;SDS011;4969;52.304;4.968;2023-10-31T08:20:23;2.40;;;1.87;;
9860;SDS011;4969;52.304;4.968;2023-10-31T08:22:51;1.93;;;1.63;;
9860;SDS011;4969;52.304;4.968;2023-10-31T08:25:17;3.83;;;2.40;;
9860;SDS011;4969;52.304;4.968;2023-10-31T08:27:44;3.17;;;2.23;;
9860;SDS011;4969;52.304;4.968;2023-10-31T08:30:10;5.00;;;2.63;;
9860;SDS011;4969;52.304;4.968;2023-10-31T08:32:38;4.63;;;2.00;;
9860;SDS011;4969;52.304;4.968;2023-10-31T08:35:04;3.43;;;2.03;;
9860;SDS011;4969;52.304;4.968;2023-10-31T08:37:31;5.17;;;2.07;;
9860;SDS011;4969;52.304;4.968;2023-10-31T08:39:59;3.20;;;1.90;;
9860;SDS011;4969;52.304;4.968;2023-10-31T08:42:28;4.43;;;2.27;;
9860;SDS011;4969;52.304;4.968;2023-10-31T08:44:54;3.23;;;2.07;;
9860;SDS011;4969;52.304;4.968;2023-10-31T08:47:21;2.70;;;1.97;;
9860;SDS011;4969;52.304;4.968;2023-10-31T08:49:48;2.87;;;1.90;;
9860;SDS011;4969;52.304;4.968;2023-10-31T08:52:15;2.93;;;1.77;;
9860;SDS011;4969;52.304;4.968;2023-10-31T08:54:42;3.13;;;1.50;;
9860;SDS011;4969;52.304;4.968;2023-10-31T08:57:10;3.77;;;1.50;;
9860;SDS011;4969;52.304;4.968;2023-10-31T08:59:37;2.73;;;2.00;;
9860;SDS011;4969;52.304;4.968;2023-10-31T09:02:04;4.60;;;1.70;;
9860;SDS011;4969;52.304;4.968;2023-10-31T09:04:31;2.80;;;1.52;;
9860;SDS011;4969;52.304;4.968;2023-10-31T09:06:58;4.45;;;1.88;;
9860;SDS011;4969;52.304;4.968;2023-10-31T09:09:24;2.67;;;1.85;;
9860;SDS011;4969;52.304;4.968;2023-10-31T09:11:51;5.68;;;2.50;;
9860;SDS011;4969;52.304;4.968;2023-10-31T09:14:19;6.87;;;2.37;;
9860;SDS011;4969;52.304;4.968;2023-10-31T09:16:46;4.37;;;2.07;;
9860;SDS011;4969;52.304;4.968;2023-10-31T09:19:12;3.00;;;1.70;;
9860;SDS011;4969;52.304;4.968;2023-10-31T09:21:39;5.23;;;2.10;;
9860;SDS011;4969;52.304;4.968;2023-10-31T09:24:06;4.70;;;1.87;;
9860;SDS011;4969;52.304;4.968;2023-10-31T09:26:34;4.17;;;1.80;;
9860;SDS011;4969;52.304;4.968;2023-10-31T09:29:01;4.77;;;2.20;;
9860;SDS011;4969;52.304;4.968;2023-10-31T09:31:28;4.80;;;2.23;;
9860;SDS011;4969;52.304;4.968;2023-10-31T09:33:55;2.05;;;1.40;;
9860;SDS011;4969;52.304;4.968;2023-10-31T09:36:22;3.83;;;2.42;;
9860;SDS011;4969;52.304;4.968;2023-10-31T09:38:48;4.32;;;2.17;;
9860;SDS011;4969;52.304;4.968;2023-10-31T09:41:15;4.47;;;1.90;;
9860;SDS011;4969;52.304;4.968;2023-10-31T09:43:42;6.35;;;2.35;;
9860;SDS011;4969;52.304;4.968;2023-10-31T09:46:08;4.78;;;2.33;;
9860;SDS011;4969;52.304;4.968;2023-10-31T09:48:37;4.55;;;2.00;;
9860;SDS011;4969;52.304;4.968;2023-10-31T09:51:04;4.03;;;2.15;;
9860;SDS011;4969;52.304;4.968;2023-10-31T09:53:33;4.75;;;2.58;;
9860;SDS011;4969;52.304;4.968;2023-10-31T09:56:03;4.28;;;2.60;;
9860;SDS011;4969;52.304;4.968;2023-10-31T09:58:31;3.65;;;2.55;;
9860;SDS011;4969;52.304;4.968;2023-10-31T10:00:57;5.22;;;2.45;;
9860;SDS011;4969;52.304;4.968;2023-10-31T10:03:24;6.68;;;3.05;;
9860;SDS011;4969;52.304;4.968;2023-10-31T10:05:52;5.82;;;2.83;;
9860;SDS011;4969;52.304;4.968;2023-10-31T10:08:19;4.90;;;2.40;;
9860;SDS011;4969;52.304;4.968;2023-10-31T10:10:45;2.50;;;2.30;;
9860;SDS011;4969;52.304;4.968;2023-10-31T10:13:13;4.38;;;2.40;;
9860;SDS011;4969;52.304;4.968;2023-10-31T10:15:45;4.63;;;2.25;;
9860;SDS011;4969;52.304;4.968;2023-10-31T10:18:24;5.35;;;2.40;;
9860;SDS011;4969;52.304;4.968;2023-10-31T10:20:55;5.80;;;2.50;;
9860;SDS011;4969;52.304;4.968;2023-10-31T10:23:23;2.85;;;2.28;;
9860;SDS011;4969;52.304;4.968;2023-10-31T10:25:50;4.72;;;2.15;;
9860;SDS011;4969;52.304;4.968;2023-10-31T10:28:17;5.68;;;2.08;;
9860;SDS011;4969;52.304;4.968;2023-10-31T10:30:45;3.58;;;2.08;;
9860;SDS011;4969;52.304;4.968;2023-10-31T10:33:12;5.65;;;2.25;;
9860;SDS011;4969;52.304;4.968;2023-10-31T10:35:38;4.93;;;2.22;;
9860;SDS011;4969;52.304;4.968;2023-10-31T10:38:06;3.25;;;1.95;;
9860;SDS011;4969;52.304;4.968;2023-10-31T10:40:37;2.83;;;1.33;;
9860;SDS011;4969;52.304;4.968;2023-10-31T10:43:06;1.55;;;1.10;;
9860;SDS011;4969;52.304;4.968;2023-10-31T10:45:37;2.53;;;1.20;;
9860;SDS011;4969;52.304;4.968;2023-10-31T10:48:07;2.85;;;1.23;;
9860;SDS011;4969;52.304;4.968;2023-10-31T10:50:38;1.38;;;1.17;;
9860;SDS011;4969;52.304;4.968;2023-10-31T10:53:13;1.52;;;0.98;;
9860;SDS011;4969;52.304;4.968;2023-10-31T10:55:50;2.55;;;1.20;;
9860;SDS011;4969;52.304;4.968;2023-10-31T10:58:21;3.15;;;1.30;;
9860;SDS011;4969;52.304;4.968;2023-10-31T11:00:52;1.00;;;1.00;;
9860;SDS011;4969;52.304;4.968;2023-10-31T11:03:20;3.70;;;1.40;;
9860;SDS011;4969;52.304;4.968;2023-10-31T11:05:48;3.05;;;1.65;;
9860;SDS011;4969;52.304;4.968;2023-10-31T11:08:16;1.42;;;1.20;;
9860;SDS011;4969;52.304;4.968;2023-10-31T11:10:43;3.38;;;1.75;;
9860;SDS011;4969;52.304;4.968;2023-10-31T11:13:11;3.58;;;1.50;;
9860;SDS011;4969;52.304;4.968;2023-10-31T11:15:38;1.63;;;1.33;;
9860;SDS011;4969;52.304;4.968;2023-10-31T11:18:06;1.83;;;1.48;;
9860;SDS011;4969;52.304;4.968;2023-10-31T11:20:33;1.92;;;1.40;;
9860;SDS011;4969;52.304;4.968;2023-10-31T11:23:01;2.65;;;1.50;;
9860;SDS011;4969;52.304;4.968;2023-10-31T11:25:33;3.17;;;1.70;;
9860;SDS011;4969;52.304;4.968;2023-10-31T11:28:12;1.63;;;1.40;;
9860;SDS011;4969;52.304;4.968;2023-10-31T11:30:39;1.63;;;0.90;;
9860;SDS011;4969;52.304;4.968;2023-10-31T11:33:06;6.40;;;1.38;;
9860;SDS011;4969;52.304;4.968;2023-10-31T11:35:38;2.58;;;1.13;;
9860;SDS011;4969;52.304;4.968;2023-10-31T11:38:05;1.27;;;0.98;;
9860;SDS011;4969;52.304;4.968;2023-10-31T11:40:35;2.22;;;1.30;;
9860;SDS011;4969;52.304;4.968;2023-10-31T11:43:03;2.33;;;1.00;;
9860;SDS011;4969;52.304;4.968;2023-10-31T11:45:33;2.13;;;1.02;;
9860;SDS011;4969;52.304;4.968;2023-10-31T11:48:00;1.73;;;1.17;;
9860;SDS011;4969;52.304;4.968;2023-10-31T11:50:29;1.25;;;0.90;;
9860;SDS011;4969;52.304;4.968;2023-10-31T11:52:59;1.08;;;0.80;;
9860;SDS011;4969;52.304;4.968;2023-10-31T11:55:27;1.88;;;0.93;;
9860;SDS011;4969;52.304;4.968;2023-10-31T11:57:56;1.90;;;1.10;;
9860;SDS011;4969;52.304;4.968;2023-10-31T12:00:23;2.55;;;1.00;;
9860;SDS011;4969;52.304;4.968;2023-10-31T12:02:59;1.27;;;0.82;;
9860;SDS011;4969;52.304;4.968;2023-10-31T12:05:26;1.92;;;0.60;;
9860;SDS011;4969;52.304;4.968;2023-10-31T12:07:53;3.10;;;0.93;;
9860;SDS011;4969;52.304;4.968;2023-10-31T12:10:23;2.47;;;1.02;;
9860;SDS011;4969;52.304;4.968;2023-10-31T12:12:51;1.33;;;0.88;;
9860;SDS011;4969;52.304;4.968;2023-10-31T12:15:20;2.55;;;1.05;;
9860;SDS011;4969;52.304;4.968;2023-10-31T12:17:47;2.90;;;1.10;;
9860;SDS011;4969;52.304;4.968;2023-10-31T12:20:14;3.78;;;0.90;;
9860;SDS011;4969;52.304;4.968;2023-10-31T12:22:42;2.75;;;0.90;;
9860;SDS011;4969;52.304;4.968;2023-10-31T12:25:09;2.08;;;1.00;;
9860;SDS011;4969;52.304;4.968;2023-10-31T12:27:43;3.67;;;1.70;;
9860;SDS011;4969;52.304;4.968;2023-10-31T12:30:11;12.35;;;3.63;;
9860;SDS011;4969;52.304;4.968;2023-10-31T12:32:40;5.40;;;2.38;;
9860;SDS011;4969;52.304;4.968;2023-10-31T12:35:08;3.33;;;2.05;;
9860;SDS011;4969;52.304;4.968;2023-10-31T12:37:40;3.22;;;2.10;;
9860;SDS011;4969;52.304;4.968;2023-10-31T12:40:09;4.28;;;2.03;;
9860;SDS011;4969;52.304;4.968;2023-10-31T12:42:36;4.13;;;2.00;;
9860;SDS011;4969;52.304;4.968;2023-10-31T12:45:03;3.85;;;2.03;;
9860;SDS011;4969;52.304;4.968;2023-10-31T12:47:31;4.40;;;1.80;;
9860;SDS011;4969;52.304;4.968;2023-10-31T12:52:47;2.70;;;1.60;;
9860;SDS011;4969;52.304;4.968;2023-10-31T12:55:15;2.80;;;1.50;;
9860;SDS011;4969;52.304;4.968;2023-10-31T12:57:42;3.35;;;1.60;;
9860;SDS011;4969;52.304;4.968;2023-10-31T13:00:09;2.63;;;1.50;;
9860;SDS011;4969;52.304;4.968;2023-10-31T13:02:38;2.85;;;1.88;;
9860;SDS011;4969;52.304;4.968;2023-10-31T13:05:09;3.88;;;2.22;;
9860;SDS011;4969;52.304;4.968;2023-10-31T13:07:38;2.22;;;1.70;;
9860;SDS011;4969;52.304;4.968;2023-10-31T13:10:05;2.38;;;1.38;;
9860;SDS011;4969;52.304;4.968;2023-10-31T13:12:34;2.40;;;1.15;;
9860;SDS011;4969;52.304;4.968;2023-10-31T13:15:01;1.33;;;1.20;;
9860;SDS011;4969;52.304;4.968;2023-10-31T13:17:27;3.53;;;1.20;;
9860;SDS011;4969;52.304;4.968;2023-10-31T13:19:56;2.28;;;1.30;;
9860;SDS011;4969;52.304;4.968;2023-10-31T13:22:22;1.17;;;0.98;;
9860;SDS011;4969;52.304;4.968;2023-10-31T13:24:50;1.55;;;1.10;;
9860;SDS011;4969;52.304;4.968;2023-10-31T13:27:17;2.88;;;1.30;;
9860;SDS011;4969;52.304;4.968;2023-10-31T13:29:44;1.85;;;1.17;;
9860;SDS011;4969;52.304;4.968;2023-10-31T13:32:14;1.95;;;1.27;;
9860;SDS011;4969;52.304;4.968;2023-10-31T13:34:41;1.95;;;1.30;;
9860;SDS011;4969;52.304;4.968;2023-10-31T13:37:07;2.47;;;1.40;;
9860;SDS011;4969;52.304;4.968;2023-10-31T13:39:34;1.38;;;1.10;;
9860;SDS011;4969;52.304;4.968;2023-10-31T13:42:02;2.47;;;1.63;;
9860;SDS011;4969;52.304;4.968;2023-10-31T13:44:28;2.58;;;1.95;;
9860;SDS011;4969;52.304;4.968;2023-10-31T13:46:55;2.72;;;2.15;;
9860;SDS011;4969;52.304;4.968;2023-10-31T13:49:22;2.83;;;2.47;;
9860;SDS011;4969;52.304;4.968;2023-10-31T13:51:49;4.45;;;3.58;;
9860;SDS011;4969;52.304;4.968;2023-10-31T13:54:15;4.68;;;4.25;;
9860;SDS011;4969;52.304;4.968;2023-10-31T13:56:42;4.90;;;4.40;;
9860;SDS011;4969;52.304;4.968;2023-10-31T13:59:10;5.05;;;4.38;;
9860;SDS011;4969;52.304;4.968;2023-10-31T14:01:36;4.13;;;3.72;;
9860;SDS011;4969;52.304;4.968;2023-10-31T14:04:03;3.72;;;2.88;;
9860;SDS011;4969;52.304;4.968;2023-10-31T14:06:30;4.75;;;2.60;;
9860;SDS011;4969;52.304;4.968;2023-10-31T14:08:57;2.90;;;2.05;;
9860;SDS011;4969;52.304;4.968;2023-10-31T14:11:24;2.55;;;1.70;;
9860;SDS011;4969;52.304;4.968;2023-10-31T14:13:50;3.85;;;1.77;;
9860;SDS011;4969;52.304;4.968;2023-10-31T14:16:18;1.70;;;1.52;;
9860;SDS011;4969;52.304;4.968;2023-10-31T14:18:45;4.82;;;1.85;;
9860;SDS011;4969;52.304;4.968;2023-10-31T14:21:12;3.33;;;1.90;;
9860;SDS011;4969;52.304;4.968;2023-10-31T14:23:39;3.00;;;1.90;;
9860;SDS011;4969;52.304;4.968;2023-10-31T14:26:05;3.55;;;1.92;;
9860;SDS011;4969;52.304;4.968;2023-10-31T14:28:32;3.42;;;1.98;;
9860;SDS011;4969;52.304;4.968;2023-10-31T14:30:59;2.95;;;1.48;;
9860;SDS011;4969;52.304;4.968;2023-10-31T14:33:27;2.55;;;1.83;;
9860;SDS011;4969;52.304;4.968;2023-10-31T14:35:54;3.70;;;1.75;;
9860;SDS011;4969;52.304;4.968;2023-10-31T14:38:21;2.85;;;2.17;;
9860;SDS011;4969;52.304;4.968;2023-10-31T14:40:47;4.05;;;1.83;;
9860;SDS011;4969;52.304;4.968;2023-10-31T14:43:14;3.80;;;2.67;;
9860;SDS011;4969;52.304;4.968;2023-10-31T14:45:43;4.67;;;2.47;;
9860;SDS011;4969;52.304;4.968;2023-10-31T14:48:10;7.93;;;2.90;;
9860;SDS011;4969;52.304;4.968;2023-10-31T14:50:38;4.63;;;2.70;;
9860;SDS011;4969;52.304;4.968;2023-10-31T14:53:04;5.20;;;4.00;;
9860;SDS011;4969;52.304;4.968;2023-10-31T14:55:31;6.47;;;3.73;;
9860;SDS011;4969;52.304;4.968;2023-10-31T14:57:58;3.97;;;3.47;;
9860;SDS011;4969;52.304;4.968;2023-10-31T15:00:24;6.53;;;4.37;;
9860;SDS011;4969;52.304;4.968;2023-10-31T15:02:51;17.70;;;15.88;;
9860;SDS011;4969;52.304;4.968;2023-10-31T15:05:17;20.10;;;18.00;;
9860;SDS011;4969;52.304;4.968;2023-10-31T15:07:45;19.43;;;17.60;;
9860;SDS011;4969;52.304;4.968;2023-10-31T15:10:12;20.80;;;18.63;;
9860;SDS011;4969;52.304;4.968;2023-10-31T15:12:38;24.73;;;22.17;;
9860;SDS011;4969;52.304;4.968;2023-10-31T15:15:06;27.88;;;25.08;;
9860;SDS011;4969;52.304;4.968;2023-10-31T15:17:33;26.65;;;23.92;;